Time;durP1;ratioP1;P1;durP2;ratioP2;P2;SDS_P1;SDS_P2;PMS_P1;PMS_P2;Temp;Humidity;BMP_temperature;BMP_pressure;BME280_temperature;BME280_humidity;BME280_pressure;Samples;Min_cycle;Max_cycle;Signal;HPM_P1;HPM_P2
2023/10/27 00:10:35;;;;;;;;;;;;;;;21.90;61.85;100440.22;6245030;23;19915;-86
2023/10/27 00:13:01;;;;;;;;;;;;;;;21.88;61.95;100434.00;6244894;23;19907;-86
2023/10/27 00:15:26;;;;;;;;;;;;;;;21.89;61.78;100434.91;6243001;23;20274;-86
2023/10/27 00:17:52;;;;;;;;;;;;;;;21.87;61.78;100439.34;6242410;23;20363;-87
2023/10/27 00:20:17;;;;;;;;;;;;;;;21.89;61.59;100426.94;6243782;23;19986;-87
2023/10/27 00:22:42;;;;;;;;;;;;;;;21.92;61.71;100424.28;6242736;23;19912;-87
2023/10/27 00:25:10;;;;;;;;;;;;;;;21.92;61.57;100425.16;6217954;23;19916;-86
2023/10/27 00:27:36;;;;;;;;;;;;;;;21.88;61.63;100420.72;6244236;23;19986;-86
2023/10/27 00:30:01;;;;;;;;;;;;;;;21.86;61.58;100432.22;6215895;23;20287;-86
2023/10/27 00:32:26;;;;;;;;;;;;;;;21.85;61.54;100422.50;6244538;23;20357;-86
2023/10/27 00:34:52;;;;;;;;;;;;;;;21.84;61.44;100418.94;6242718;23;19911;-86
2023/10/27 00:37:17;;;;;;;;;;;;;;;21.84;61.39;100418.94;6243477;23;20335;-86
2023/10/27 00:39:43;;;;;;;;;;;;;;;21.83;61.30;100417.16;6242694;23;19997;-85
2023/10/27 00:42:08;;;;;;;;;;;;;;;21.86;61.42;100424.25;6243197;23;20330;-86
2023/10/27 00:44:52;;;;;;;;;;;;;;;21.85;61.37;100417.19;6242517;23;19990;-85
2023/10/27 00:47:24;;;;;;;;;;;;;;;21.83;61.20;100418.94;6242440;23;19977;-85
2023/10/27 00:49:49;;;;;;;;;;;;;;;21.84;61.25;100423.38;6244633;23;19907;-86
2023/10/27 00:52:15;;;;;;;;;;;;;;;21.81;61.28;100426.91;6217792;23;19973;-86
2023/10/27 00:57:31;;;;;;;;;;;;;;;21.83;61.04;100422.50;6222916;23;19938;-85
2023/10/27 00:59:56;;;;;;;;;;;;;;;21.81;61.25;100423.38;6244448;23;20322;-86
2023/10/27 01:02:21;;;;;;;;;;;;;;;21.82;61.27;100433.09;6242396;23;19912;-86
2023/10/27 01:04:47;;;;;;;;;;;;;;;21.84;61.26;100424.25;6216878;23;19918;-86
2023/10/27 01:07:13;;;;;;;;;;;;;;;21.84;61.26;100423.38;6244555;23;19911;-85
2023/10/27 01:09:38;;;;;;;;;;;;;;;21.84;61.25;100432.22;6242155;23;19935;-85
2023/10/27 01:12:04;;;;;;;;;;;;;;;21.78;61.77;100431.31;6242754;23;19908;-85
2023/10/27 01:14:30;;;;;;;;;;;;;;;21.82;61.31;100433.09;6242789;23;19908;-86
2023/10/27 01:16:56;;;;;;;;;;;;;;;21.81;61.29;100424.25;6244425;23;19915;-85
2023/10/27 01:19:22;;;;;;;;;;;;;;;21.80;61.40;100419.84;6217025;23;19986;-85
2023/10/27 01:21:47;;;;;;;;;;;;;;;21.92;60.99;100418.97;6243203;23;20351;-85
2023/10/27 01:24:13;;;;;;;;;;;;;;;21.91;61.03;100418.06;6243204;23;20244;-86
2023/10/27 01:26:38;;;;;;;;;;;;;;;21.89;61.06;100416.31;6241782;23;20302;-85
2023/10/27 01:29:03;;;;;;;;;;;;;;;21.89;61.06;100411.88;6216958;23;19907;-85
2023/10/27 01:31:29;;;;;;;;;;;;;;;21.87;61.10;100410.09;6241984;23;20266;-86
2023/10/27 01:33:54;;;;;;;;;;;;;;;21.85;60.83;100404.78;6216250;23;20386;-86
2023/10/27 01:36:20;;;;;;;;;;;;;;;21.88;60.84;100402.09;6216908;23;19908;-87
2023/10/27 01:38:45;;;;;;;;;;;;;;;21.89;60.75;100398.56;6243494;23;20354;-86
2023/10/27 01:41:11;;;;;;;;;;;;;;;21.85;60.85;100404.78;6241178;23;19942;-87
2023/10/27 01:43:37;;;;;;;;;;;;;;;21.87;60.96;100407.44;6241171;23;20339;-87
2023/10/27 01:46:02;;;;;;;;;;;;;;;21.85;60.96;100404.78;6241520;23;19911;-87
2023/10/27 01:48:27;;;;;;;;;;;;;;;21.84;60.98;100404.75;6241629;23;19907;-87
2023/10/27 01:50:54;;;;;;;;;;;;;;;21.86;60.74;100406.53;6243978;23;19911;-86
2023/10/27 01:53:20;;;;;;;;;;;;;;;21.87;60.76;100405.66;6242409;23;19930;-87
2023/10/27 01:55:46;;;;;;;;;;;;;;;21.86;60.75;100400.34;6242542;23;20335;-87
2023/10/27 01:58:11;;;;;;;;;;;;;;;21.87;60.85;100399.47;6216253;23;20357;-87
2023/10/27 02:00:36;;;;;;;;;;;;;;;21.84;60.82;100404.75;6243810;23;20558;-87
2023/10/27 02:03:02;;;;;;;;;;;;;;;21.86;60.82;100406.53;6243645;23;20340;-87
2023/10/27 02:05:27;;;;;;;;;;;;;;;21.86;60.85;100411.84;6244152;23;20259;-87
2023/10/27 02:07:53;;;;;;;;;;;;;;;21.77;61.19;100403.88;6243450;23;20267;-87
2023/10/27 02:10:27;;;;;;;;;;;;;;;21.84;61.00;100412.72;6217111;23;19950;-86
2023/10/27 02:16:08;;;;;;;;;;;;;;;21.85;60.83;100422.50;6244103;23;19914;-86
2023/10/27 02:21:39;;;;;;;;;;;;;;;21.81;60.87;100413.63;6243421;23;19955;-87
2023/10/27 02:24:08;;;;;;;;;;;;;;;21.80;60.98;100417.19;6243090;23;19962;-87
2023/10/27 02:29:58;;;;;;;;;;;;;;;21.81;60.88;100418.94;6243283;23;19927;-86
2023/10/27 02:32:23;;;;;;;;;;;;;;;21.80;60.94;100426.91;6242882;23;20428;-87
2023/10/27 02:34:49;;;;;;;;;;;;;;;21.75;61.01;100427.78;6241689;23;19911;-86
2023/10/27 02:37:14;;;;;;;;;;;;;;;21.78;60.97;100429.56;6242150;23;20270;-86
2023/10/27 02:39:40;;;;;;;;;;;;;;;21.82;60.65;100430.44;6242837;23;19914;-87
2023/10/27 02:42:17;;;;;;;;;;;;;;;21.82;60.69;100431.31;6243466;23;19961;-86
2023/10/27 02:47:45;;;;;;;;;;;;;;;21.77;60.88;100462.34;6248983;23;20400;-86
2023/10/27 02:50:12;;;;;;;;;;;;;;;21.77;60.83;100472.09;6245861;23;19908;-84
2023/10/27 02:52:37;;;;;;;;;;;;;;;21.72;60.80;100465.00;6226963;23;19960;-86
2023/10/27 02:55:07;;;;;;;;;;;;;;;21.73;60.96;100458.78;6245340;23;20117;-85
2023/10/27 02:57:55;;;;;;;;;;;;;;;21.74;60.88;100455.25;6217605;23;19912;-85
2023/10/27 03:00:43;;;;;;;;;;;;;;;21.75;60.90;100456.13;6196087;23;19908;-86
2023/10/27 03:03:09;;;;;;;;;;;;;;;21.72;60.90;100454.34;6240049;23;19965;-86
2023/10/27 03:05:35;;;;;;;;;;;;;;;21.69;61.03;100453.44;6241655;23;19918;-85
2023/10/27 03:08:00;;;;;;;;;;;;;;;21.72;60.90;100448.16;6215942;23;20302;-86
2023/10/27 03:10:26;;;;;;;;;;;;;;;21.72;60.75;100457.00;6242586;23;19914;-85
2023/10/27 03:12:52;;;;;;;;;;;;;;;21.72;60.84;100464.09;6241236;23;19918;-85
2023/10/27 03:15:35;;;;;;;;;;;;;;;21.71;60.76;100457.88;6242269;23;20309;-86
2023/10/27 03:18:12;;;;;;;;;;;;;;;21.67;60.88;100456.09;6243889;23;19999;-88
2023/10/27 03:20:38;;;;;;;;;;;;;;;21.68;60.78;100459.66;6244022;23;20240;-85
2023/10/27 03:23:03;;;;;;;;;;;;;;;21.66;60.77;100451.66;6244267;23;20371;-86
2023/10/27 03:28:33;;;;;;;;;;;;;;;21.63;60.77;100458.75;6244799;23;20035;-86
2023/10/27 03:30:59;;;;;;;;;;;;;;;21.67;60.80;100452.56;6243318;23;19916;-85
2023/10/27 03:33:27;;;;;;;;;;;;;;;21.66;60.74;100457.00;6245554;23;19915;-85
2023/10/27 03:35:53;;;;;;;;;;;;;;;21.67;60.90;100452.56;6245518;23;19930;-86
2023/10/27 03:38:18;;;;;;;;;;;;;;;21.66;60.77;100451.66;6243892;23;20343;-86
2023/10/27 03:40:44;;;;;;;;;;;;;;;21.61;60.85;100450.78;6243806;23;19914;-85
2023/10/27 03:43:16;;;;;;;;;;;;;;;21.61;60.92;100450.78;6243911;23;19911;-86
2023/10/27 03:45:42;;;;;;;;;;;;;;;21.61;60.85;100453.44;6218165;23;20530;-87
2023/10/27 03:51:19;;;;;;;;;;;;;;;21.58;60.83;100452.53;6245207;23;20271;-86
2023/10/27 03:57:19;;;;;;;;;;;;;;;21.62;60.79;100451.66;6245236;23;20320;-86
2023/10/27 03:59:53;;;;;;;;;;;;;;;21.59;60.84;100447.22;6244816;23;19950;-87
2023/10/27 04:02:18;;;;;;;;;;;;;;;21.61;60.79;100447.22;6217824;23;19907;-86
2023/10/27 04:04:51;;;;;;;;;;;;;;;21.54;60.89;100448.97;6243270;23;19954;-86
2023/10/27 04:07:16;;;;;;;;;;;;;;;21.56;60.90;100447.19;6218201;23;19991;-86
2023/10/27 04:09:42;;;;;;;;;;;;;;;21.55;60.75;100442.78;6243198;23;20004;-86
2023/10/27 04:12:07;;;;;;;;;;;;;;;21.55;60.92;100441.00;6243380;23;19915;-86
2023/10/27 04:14:33;;;;;;;;;;;;;;;21.58;60.76;100433.94;6242721;23;19918;-86
2023/10/27 04:16:59;;;;;;;;;;;;;;;21.49;61.05;100435.66;6243790;23;19907;-87
2023/10/27 04:19:24;;;;;;;;;;;;;;;21.47;60.94;100432.13;6241764;23;19911;-87
2023/10/27 04:21:50;;;;;;;;;;;;;;;21.49;60.91;100421.50;6217360;23;20351;-86
2023/10/27 04:24:17;;;;;;;;;;;;;;;21.47;60.85;100424.16;6242981;23;19911;-87
2023/10/27 04:26:42;;;;;;;;;;;;;;;21.47;60.82;100431.25;6242404;23;19907;-86
2023/10/27 04:29:07;;;;;;;;;;;;;;;21.45;60.89;100435.66;6242001;23;19907;-85
2023/10/27 04:31:33;;;;;;;;;;;;;;;21.48;60.80;100433.00;6241451;23;19924;-84
2023/10/27 04:33:58;;;;;;;;;;;;;;;21.45;60.73;100436.53;6243152;23;19908;-85
2023/10/27 04:36:24;;;;;;;;;;;;;;;21.45;60.99;100428.56;6243538;23;19946;-86
2023/10/27 04:38:50;;;;;;;;;;;;;;;21.48;60.70;100428.59;6242689;23;19914;-85
2023/10/27 04:41:15;;;;;;;;;;;;;;;21.48;60.76;100414.41;6242565;23;19908;-86
2023/10/27 04:43:42;;;;;;;;;;;;;;;21.50;60.68;100413.50;6216044;23;19950;-85
2023/10/27 04:46:09;;;;;;;;;;;;;;;21.46;60.88;100417.06;6242360;23;20339;-88
2023/10/27 04:48:34;;;;;;;;;;;;;;;21.45;60.78;100422.38;6242812;23;19912;-87
2023/10/27 04:51:03;;;;;;;;;;;;;;;21.41;61.04;100424.09;6216572;23;19907;-86
2023/10/27 04:53:29;;;;;;;;;;;;;;;21.44;60.98;100431.22;6242206;23;19914;-85
2023/10/27 04:55:54;;;;;;;;;;;;;;;21.43;60.83;100429.44;6241340;23;20321;-86
2023/10/27 04:58:28;;;;;;;;;;;;;;;21.41;60.80;100434.72;6244382;23;19942;-86
2023/10/27 05:00:54;;;;;;;;;;;;;;;21.43;60.85;100435.63;6242415;23;19911;-83
2023/10/27 05:03:19;;;;;;;;;;;;;;;21.48;60.81;100439.22;6241425;23;19959;-85
2023/10/27 05:05:45;;;;;;;;;;;;;;;21.45;60.92;100438.31;6243241;23;20267;-84
2023/10/27 05:08:10;;;;;;;;;;;;;;;21.45;60.76;100438.31;6243375;23;20266;-80
2023/10/27 05:10:36;;;;;;;;;;;;;;;21.39;60.88;100443.56;6242480;23;19911;-80
2023/10/27 05:13:03;;;;;;;;;;;;;;;21.39;60.93;100444.44;6243907;23;20199;-80
2023/10/27 05:15:28;;;;;;;;;;;;;;;21.39;60.96;100449.75;6243217;23;19914;-79
2023/10/27 05:17:54;;;;;;;;;;;;;;;21.40;60.85;100443.56;6243359;23;19911;-81
2023/10/27 05:20:19;;;;;;;;;;;;;;;21.38;60.97;100441.75;6242118;23;19969;-80
2023/10/27 05:22:45;;;;;;;;;;;;;;;21.35;60.93;100438.22;6241337;23;19911;-80
2023/10/27 05:25:10;;;;;;;;;;;;;;;21.40;60.80;100438.25;6242889;23;19912;-80
2023/10/27 05:27:35;;;;;;;;;;;;;;;21.38;60.87;100448.00;6243170;23;20305;-80
2023/10/27 05:30:01;;;;;;;;;;;;;;;21.40;60.90;100451.53;6241605;23;19911;-81
2023/10/27 05:32:27;;;;;;;;;;;;;;;21.42;60.66;100452.47;6240858;23;20351;-80
2023/10/27 05:34:52;;;;;;;;;;;;;;;21.38;60.87;100455.97;6242493;23;19911;-79
2023/10/27 05:37:19;;;;;;;;;;;;;;;21.40;60.81;100459.53;6241505;23;19935;-82
2023/10/27 05:39:44;;;;;;;;;;;;;;;21.38;60.88;100457.72;6215588;23;20351;-82
2023/10/27 05:42:10;;;;;;;;;;;;;;;21.37;60.88;100461.25;6239009;23;19935;-81
2023/10/27 05:44:35;;;;;;;;;;;;;;;21.33;61.13;100457.69;6239806;23;19911;-81
2023/10/27 05:47:01;;;;;;;;;;;;;;;21.38;60.88;100461.28;6240848;23;20054;-81
2023/10/27 05:49:27;;;;;;;;;;;;;;;21.37;61.09;100459.47;6241003;23;19911;-81
2023/10/27 05:51:53;;;;;;;;;;;;;;;21.40;60.73;100453.28;6241330;23;20298;-82
2023/10/27 05:54:18;;;;;;;;;;;;;;;21.37;60.92;100451.50;6237063;23;19912;-81
2023/10/27 05:56:44;;;;;;;;;;;;;;;21.35;61.01;100450.63;6237367;23;20300;-83
2023/10/27 05:59:09;;;;;;;;;;;;;;;21.35;60.92;100448.84;6242276;23;19908;-82
2023/10/27 06:01:35;;;;;;;;;;;;;;;21.35;61.02;100454.16;6242777;23;20255;-81
2023/10/27 06:04:00;;;;;;;;;;;;;;;21.37;60.84;100446.19;6242820;23;20346;-82
2023/10/27 06:06:26;;;;;;;;;;;;;;;21.36;60.91;100444.44;6242310;23;20335;-82
2023/10/27 06:08:51;;;;;;;;;;;;;;;21.33;60.97;100450.59;6243592;23;19955;-82
2023/10/27 06:11:16;;;;;;;;;;;;;;;21.31;60.97;100451.47;6242900;23;19990;-82
2023/10/27 06:13:42;;;;;;;;;;;;;;;21.28;61.20;100448.81;6243377;23;19912;-82
2023/10/27 06:16:07;;;;;;;;;;;;;;;21.27;61.15;100455.00;6243200;23;19965;-81
2023/10/27 06:18:33;;;;;;;;;;;;;;;21.33;61.07;100455.03;6243608;23;19908;-82
2023/10/27 06:20:58;;;;;;;;;;;;;;;21.34;61.02;100447.09;6243626;23;20320;-81
2023/10/27 06:23:24;;;;;;;;;;;;;;;21.36;60.90;100447.09;6242943;23;19915;-82
2023/10/27 06:25:50;;;;;;;;;;;;;;;21.29;61.15;100439.97;6242452;23;20409;-81
2023/10/27 06:28:15;;;;;;;;;;;;;;;21.28;61.13;100436.44;6243027;23;19907;-82
2023/10/27 06:30:40;;;;;;;;;;;;;;;21.32;61.05;100448.84;6242401;23;19938;-81
2023/10/27 06:33:06;;;;;;;;;;;;;;;21.32;61.04;100440.00;6242674;23;20649;-82
2023/10/27 06:35:32;;;;;;;;;;;;;;;21.32;60.88;100435.56;6242897;23;19919;-82
2023/10/27 06:37:57;;;;;;;;;;;;;;;21.32;61.08;100434.69;6243526;23;19914;-81
2023/10/27 06:40:23;;;;;;;;;;;;;;;21.34;60.97;100430.25;6243855;23;19962;-82
2023/10/27 06:42:48;;;;;;;;;;;;;;;21.31;61.03;100424.91;6243450;23;20304;-82
2023/10/27 06:45:14;;;;;;;;;;;;;;;21.29;60.91;100422.28;6243230;23;19916;-82
2023/10/27 06:47:40;;;;;;;;;;;;;;;21.32;61.05;100426.72;6243564;23;19961;-81
2023/10/27 06:50:06;;;;;;;;;;;;;;;21.34;60.95;100427.59;6243472;23;19931;-82
2023/10/27 06:52:32;;;;;;;;;;;;;;;21.30;60.94;100428.47;6242743;23;19908;-81
2023/10/27 06:54:57;;;;;;;;;;;;;;;21.28;61.05;100428.47;6245227;23;19982;-82
2023/10/27 06:57:23;;;;;;;;;;;;;;;21.29;61.22;100430.25;6245233;23;19962;-81
2023/10/27 06:59:48;;;;;;;;;;;;;;;21.29;61.13;100434.66;6244828;23;19969;-81
2023/10/27 07:02:14;;;;;;;;;;;;;;;21.27;61.23;100437.31;6244938;23;19937;-81
2023/10/27 07:04:40;;;;;;;;;;;;;;;21.28;61.14;100436.44;6244566;23;19911;-81
2023/10/27 07:07:05;;;;;;;;;;;;;;;21.30;61.16;100442.63;6242601;23;19919;-80
2023/10/27 07:09:31;;;;;;;;;;;;;;;21.29;61.14;100440.88;6242761;23;20332;-80
2023/10/27 07:11:56;;;;;;;;;;;;;;;21.30;61.04;100441.75;6244280;23;20248;-81
2023/10/27 07:14:22;;;;;;;;;;;;;;;21.32;61.08;100447.97;6244491;23;19986;-80
2023/10/27 07:16:51;;;;;;;;;;;;;;;21.33;60.95;100442.63;6242589;23;19908;-83
2023/10/27 07:19:17;;;;;;;;;;;;;;;21.31;61.41;100441.78;6245129;23;19911;-80
2023/10/27 07:21:43;;;;;;;;;;;;;;;21.30;61.22;100447.06;6243378;23;19957;-81
2023/10/27 07:24:09;;;;;;;;;;;;;;;21.33;61.23;100444.41;6242932;23;19912;-81
2023/10/27 07:26:35;;;;;;;;;;;;;;;21.30;61.25;100434.66;6243743;23;19912;-81
2023/10/27 07:29:00;;;;;;;;;;;;;;;21.25;61.28;100435.50;6244443;23;20332;-79
2023/10/27 07:31:26;;;;;;;;;;;;;;;21.31;61.17;100440.84;6243925;23;20395;-83
2023/10/27 07:33:51;;;;;;;;;;;;;;;21.25;61.22;100428.47;6244687;23;20469;-81
2023/10/27 07:36:16;;;;;;;;;;;;;;;21.29;61.21;100432.91;6244432;23;20232;-81
2023/10/27 07:38:42;;;;;;;;;;;;;;;21.30;61.28;100420.50;6242642;23;20298;-82
2023/10/27 07:41:08;;;;;;;;;;;;;;;21.25;61.46;100419.56;6243730;23;19916;-81
2023/10/27 07:43:33;;;;;;;;;;;;;;;21.22;61.61;100422.22;6243744;23;20264;-80
2023/10/27 07:45:59;;;;;;;;;;;;;;;21.27;61.32;100415.16;6244076;23;20267;-81
2023/10/27 07:48:25;;;;;;;;;;;;;;;21.22;61.55;100416.91;6245591;23;19934;-81
2023/10/27 07:50:50;;;;;;;;;;;;;;;21.23;61.48;100416.03;6245390;23;20363;-81
2023/10/27 07:53:16;;;;;;;;;;;;;;;21.25;61.51;100414.28;6245559;23;20393;-81
2023/10/27 07:55:41;;;;;;;;;;;;;;;21.25;61.32;100415.19;6246728;23;19914;-81
2023/10/27 07:58:07;;;;;;;;;;;;;;;21.28;61.40;100416.94;6243072;23;20306;-80
2023/10/27 08:00:32;;;;;;;;;;;;;;;21.30;61.43;100423.16;6244996;23;20524;-81
2023/10/27 08:02:57;;;;;;;;;;;;;;;21.31;61.42;100414.28;6243857;23;19908;-80
2023/10/27 08:05:23;;;;;;;;;;;;;;;21.33;61.44;100415.19;6216698;23;20328;-81
2023/10/27 08:07:49;;;;;;;;;;;;;;;21.28;61.73;100417.84;6241456;23;19915;-81
2023/10/27 08:10:16;;;;;;;;;;;;;;;21.33;61.36;100410.75;6244802;23;19942;-81
2023/10/27 08:12:41;;;;;;;;;;;;;;;21.30;61.49;100410.75;6244436;23;19911;-80
2023/10/27 08:15:07;;;;;;;;;;;;;;;21.32;61.48;100419.63;6243750;23;19917;-80
2023/10/27 08:17:33;;;;;;;;;;;;;;;21.34;61.59;100422.31;6244939;23;19907;-81
2023/10/27 08:19:58;;;;;;;;;;;;;;;21.33;61.44;100416.06;6244880;23;19949;-80
2023/10/27 08:22:23;;;;;;;;;;;;;;;21.35;61.42;100410.78;6244367;23;20192;-80
2023/10/27 08:24:49;;;;;;;;;;;;;;;21.37;61.43;100416.09;6244624;23;20331;-80
2023/10/27 08:27:14;;;;;;;;;;;;;;;21.32;61.50;100408.13;6243967;23;19915;-81
2023/10/27 08:29:40;;;;;;;;;;;;;;;21.31;61.61;100409.91;6244719;23;20343;-81
2023/10/27 08:32:05;;;;;;;;;;;;;;;21.30;61.64;100412.53;6243684;23;19915;-80
2023/10/27 08:34:31;;;;;;;;;;;;;;;21.29;61.65;100405.44;6244876;23;19986;-81
2023/10/27 08:36:57;;;;;;;;;;;;;;;21.29;61.64;100400.13;6243452;23;19919;-79
2023/10/27 08:39:24;;;;;;;;;;;;;;;21.30;61.59;100408.09;6243948;23;19908;-81
2023/10/27 08:41:49;;;;;;;;;;;;;;;21.29;61.59;100393.06;6244593;23;19969;-79
2023/10/27 08:44:16;;;;;;;;;;;;;;;21.28;61.57;100393.94;6244532;23;19916;-80
2023/10/27 08:46:42;;;;;;;;;;;;;;;21.28;61.63;100383.31;6244434;23;19946;-80
2023/10/27 08:49:08;;;;;;;;;;;;;;;21.28;61.59;100379.78;6242930;23;19969;-80
2023/10/27 08:51:34;;;;;;;;;;;;;;;21.29;61.61;100366.50;6216609;23;20356;-81
2023/10/27 08:53:59;;;;;;;;;;;;;;;21.27;61.64;100365.63;6244364;23;19986;-84
2023/10/27 08:56:25;;;;;;;;;;;;;;;21.36;64.36;100359.44;6242726;23;19911;-80
2023/10/27 08:58:51;;;;;;;;;;;;;;;21.31;63.59;100355.88;6242255;23;20263;-81
2023/10/27 09:01:17;;;;;;;;;;;;;;;21.33;62.77;100351.44;6242576;23;19907;-83
2023/10/27 09:04:04;;;;;;;;;;;;;;;21.29;62.84;100339.03;6243021;23;20358;-80
2023/10/27 09:06:29;;;;;;;;;;;;;;;21.27;63.13;100341.72;6241429;23;19911;-81
2023/10/27 09:08:54;;;;;;;;;;;;;;;21.33;62.54;100335.50;6242565;23;19919;-81
2023/10/27 09:11:20;;;;;;;;;;;;;;;21.29;63.01;100331.97;6242841;23;20368;-81
2023/10/27 09:13:46;;;;;;;;;;;;;;;21.35;62.91;100328.44;6240233;23;19908;-81
2023/10/27 09:16:21;;;;;;;;;;;;;;;21.32;62.63;100329.31;6243269;23;20409;-80
2023/10/27 09:18:47;;;;;;;;;;;;;;;21.32;62.89;100321.34;6241949;23;20262;-81
2023/10/27 09:21:12;;;;;;;;;;;;;;;21.35;62.76;100315.16;6244301;23;19986;-81
2023/10/27 09:23:47;;;;;;;;;;;;;;;21.33;62.54;100316.91;6243391;23;20356;-80
2023/10/27 09:26:13;;;;;;;;;;;;;;;21.33;62.61;100327.53;6243252;23;19916;-81
2023/10/27 09:28:38;;;;;;;;;;;;;;;21.24;63.37;100323.09;6241473;23;19950;-79
2023/10/27 09:31:04;;;;;;;;;;;;;;;21.24;62.89;100322.22;6241937;23;19998;-82
2023/10/27 09:33:29;;;;;;;;;;;;;;;21.21;64.06;100322.19;6243122;23;19908;-81
2023/10/27 09:35:54;;;;;;;;;;;;;;;21.23;63.32;100312.47;6239567;23;19942;-80
2023/10/27 09:38:22;;;;;;;;;;;;;;;21.26;63.13;100308.06;6242216;23;19915;-81
2023/10/27 09:40:48;;;;;;;;;;;;;;;21.30;62.88;100295.69;6242318;23;20260;-81
2023/10/27 09:43:17;;;;;;;;;;;;;;;21.33;62.98;100300.97;6243156;23;19962;-79
2023/10/27 09:45:46;;;;;;;;;;;;;;;21.34;62.90;100292.16;6243744;23;19926;-81
2023/10/27 09:48:11;;;;;;;;;;;;;;;21.35;62.75;100294.78;6242312;23;19915;-83
2023/10/27 09:50:37;;;;;;;;;;;;;;;21.33;63.23;100293.03;6241593;23;19911;-80
2023/10/27 09:53:02;;;;;;;;;;;;;;;21.30;62.96;100295.69;6242914;23;19911;-80
2023/10/27 09:55:28;;;;;;;;;;;;;;;21.29;62.97;100291.22;6243033;23;19912;-80
2023/10/27 09:57:54;;;;;;;;;;;;;;;21.35;62.93;100288.59;6241063;23;19907;-80
2023/10/27 10:00:20;;;;;;;;;;;;;;;21.35;63.03;100285.94;6241734;23;19965;-80
2023/10/27 10:02:46;;;;;;;;;;;;;;;21.33;62.98;100279.75;6242503;23;20266;-80
2023/10/27 10:05:14;;;;;;;;;;;;;;;21.31;63.17;100271.78;6241713;23;19911;-80
2023/10/27 10:07:44;;;;;;;;;;;;;;;21.30;62.93;100262.03;6241039;23;19907;-80
2023/10/27 10:10:16;;;;;;;;;;;;;;;21.38;62.75;100250.53;6241207;23;19929;-79
2023/10/27 10:13:02;;;;;;;;;;;;;;;21.37;62.93;100240.81;6240586;23;19922;-80
2023/10/27 10:15:28;;;;;;;;;;;;;;;21.41;62.80;100242.56;6241208;23;19911;-79
2023/10/27 10:17:54;;;;;;;;;;;;;;;21.37;62.87;100247.00;6242565;23;19965;-81
2023/10/27 10:20:40;;;;;;;;;;;;;;;21.37;62.68;100236.38;6239957;23;19911;-81
2023/10/27 10:23:06;;;;;;;;;;;;;;;21.33;62.84;100240.78;6241537;23;19927;-81
2023/10/27 10:25:31;;;;;;;;;;;;;;;21.35;62.93;100235.47;6241110;23;19911;-81
2023/10/27 10:28:10;;;;;;;;;;;;;;;21.37;62.82;100232.81;6241353;23;19911;-81
2023/10/27 10:30:45;;;;;;;;;;;;;;;21.37;62.77;100231.06;6241469;23;19911;-81
2023/10/27 10:33:14;;;;;;;;;;;;;;;21.29;62.98;100224.84;6240612;23;19935;-81
2023/10/27 10:35:40;;;;;;;;;;;;;;;21.26;62.99;100225.72;6242049;23;19912;-81
2023/10/27 10:38:23;;;;;;;;;;;;;;;21.28;62.91;100216.00;6241890;23;20275;-81
2023/10/27 10:40:49;;;;;;;;;;;;;;;21.32;62.75;100203.63;6241520;23;19907;-81
2023/10/27 10:43:23;;;;;;;;;;;;;;;21.28;62.86;100188.56;6241147;23;19964;-81
2023/10/27 10:45:50;;;;;;;;;;;;;;;21.28;62.83;100189.44;6241344;23;19915;-81
2023/10/27 10:48:17;;;;;;;;;;;;;;;21.32;62.79;100187.69;6241376;23;20042;-80
2023/10/27 10:50:43;;;;;;;;;;;;;;;21.32;62.71;100185.91;6242379;23;19912;-81
2023/10/27 10:53:19;;;;;;;;;;;;;;;21.27;62.89;100182.38;6241857;23;19907;-81
2023/10/27 10:55:45;;;;;;;;;;;;;;;21.25;62.92;100181.47;6242099;23;19912;-81
2023/10/27 10:58:19;;;;;;;;;;;;;;;21.24;63.03;100189.44;6241931;23;20343;-84
2023/10/27 11:00:44;;;;;;;;;;;;;;;21.22;63.11;100178.81;6241111;23;19915;-85
2023/10/27 11:03:11;;;;;;;;;;;;;;;21.25;63.00;100178.81;6241111;23;20260;-85
2023/10/27 11:05:36;;;;;;;;;;;;;;;21.38;64.06;100178.81;6240356;23;19946;-87
2023/10/27 11:08:03;;;;;;;;;;;;;;;21.22;66.17;100169.97;6242865;23;19919;-87
2023/10/27 11:10:28;;;;;;;;;;;;;;;21.23;66.64;100164.66;6242152;23;19908;-87
2023/10/27 11:12:54;;;;;;;;;;;;;;;21.30;67.42;100160.22;6241134;23;20347;-85
2023/10/27 11:15:38;;;;;;;;;;;;;;;21.35;65.33;100163.75;6242122;23;20258;-83
2023/10/27 11:18:04;;;;;;;;;;;;;;;21.32;65.78;100159.34;6243722;23;19990;-84
2023/10/27 11:20:36;;;;;;;;;;;;;;;21.30;65.49;100154.94;6241956;23;19907;-84
2023/10/27 11:23:07;;;;;;;;;;;;;;;21.28;65.62;100151.38;6242382;23;19911;-85
2023/10/27 11:25:33;;;;;;;;;;;;;;;21.29;65.51;100151.41;6214737;23;19911;-84
2023/10/27 11:28:19;;;;;;;;;;;;;;;21.27;65.27;100146.94;6241821;23;20359;-84
2023/10/27 11:31:19;;;;;;;;;;;;;;;21.27;65.52;100146.94;6242099;23;19908;-84
2023/10/27 11:33:58;;;;;;;;;;;;;;;21.24;65.85;100142.53;6234628;23;19914;-83
2023/10/27 11:36:24;;;;;;;;;;;;;;;21.26;65.91;100142.53;6241748;23;19942;-84
2023/10/27 11:38:49;;;;;;;;;;;;;;;21.35;66.18;100137.22;6241427;23;20335;-85
2023/10/27 11:41:14;;;;;;;;;;;;;;;21.34;66.59;100131.00;6243447;23;19990;-83
2023/10/27 11:43:40;;;;;;;;;;;;;;;21.30;67.19;100117.75;6242336;23;19914;-83
2023/10/27 11:46:16;;;;;;;;;;;;;;;21.31;66.87;100117.75;6242758;23;19919;-86
2023/10/27 11:48:41;;;;;;;;;;;;;;;21.29;67.49;100111.56;6242818;23;19958;-85
2023/10/27 11:51:09;;;;;;;;;;;;;;;21.29;68.35;100103.59;6243055;23;19915;-85
2023/10/27 11:53:34;;;;;;;;;;;;;;;21.29;68.06;100105.34;6244589;23;19915;-85
2023/10/27 11:56:00;;;;;;;;;;;;;;;21.31;67.93;100101.81;6244463;23;19908;-85
2023/10/27 11:58:26;;;;;;;;;;;;;;;21.31;67.69;100098.25;6242619;23;19911;-84
2023/10/27 12:00:51;;;;;;;;;;;;;;;21.35;67.79;100090.28;6243195;23;19908;-84
2023/10/27 12:03:17;;;;;;;;;;;;;;;21.37;68.03;100092.06;6243130;23;19961;-84
2023/10/27 12:05:42;;;;;;;;;;;;;;;21.41;67.89;100094.72;6243603;23;19919;-84
2023/10/27 12:08:08;;;;;;;;;;;;;;;21.43;67.97;100084.13;6245012;23;20417;-84
2023/10/27 12:10:34;;;;;;;;;;;;;;;21.44;68.17;100084.13;6244678;23;20248;-83
2023/10/27 12:13:00;;;;;;;;;;;;;;;21.49;68.03;100081.47;6243190;23;20387;-84
2023/10/27 12:15:25;;;;;;;;;;;;;;;21.48;67.60;100080.59;6243571;23;19946;-83
2023/10/27 12:17:51;;;;;;;;;;;;;;;21.47;67.76;100084.13;6242491;23;19907;-84
2023/10/27 12:20:17;;;;;;;;;;;;;;;21.49;67.28;100070.84;6242365;23;19950;-83
2023/10/27 12:22:45;;;;;;;;;;;;;;;21.52;67.76;100081.44;6244199;23;20377;-84
2023/10/27 12:25:11;;;;;;;;;;;;;;;21.52;67.40;100078.78;6243100;23;19919;-83
2023/10/27 12:27:36;;;;;;;;;;;;;;;21.55;67.14;100081.47;6244381;23;19907;-83
2023/10/27 12:30:03;;;;;;;;;;;;;;;21.58;67.21;100080.56;6244054;23;19919;-83
2023/10/27 12:32:32;;;;;;;;;;;;;;;21.64;67.38;100072.56;6244403;23;19923;-83
2023/10/27 12:34:58;;;;;;;;;;;;;;;21.62;67.15;100069.03;6243469;23;19911;-84
2023/10/27 12:37:24;;;;;;;;;;;;;;;21.64;66.98;100064.59;6243019;23;20408;-83
2023/10/27 12:39:49;;;;;;;;;;;;;;;21.60;67.36;100078.78;6244460;23;20248;-83
2023/10/27 12:42:16;;;;;;;;;;;;;;;21.61;67.29;100070.81;6244348;23;19912;-82
2023/10/27 12:44:41;;;;;;;;;;;;;;;21.66;67.25;100066.38;6244511;23;19998;-83
2023/10/27 12:47:07;;;;;;;;;;;;;;;21.63;67.22;100071.69;6242496;23;19943;-83
2023/10/27 12:49:32;;;;;;;;;;;;;;;21.61;66.97;100075.22;6244509;23;20339;-83
2023/10/27 12:51:58;;;;;;;;;;;;;;;21.65;66.71;100066.34;6243578;23;20307;-84
2023/10/27 12:54:23;;;;;;;;;;;;;;;21.67;66.83;100062.81;6244356;23;19981;-83
2023/10/27 12:56:49;;;;;;;;;;;;;;;21.68;66.37;100063.72;6244415;23;19916;-83
2023/10/27 12:59:15;;;;;;;;;;;;;;;21.70;66.50;100067.25;6244446;23;19908;-86
2023/10/27 13:01:40;;;;;;;;;;;;;;;21.66;66.93;100074.34;6241965;23;19942;-83
2023/10/27 13:04:06;;;;;;;;;;;;;;;21.70;66.87;100068.13;6243904;23;20371;-83
2023/10/27 13:06:32;;;;;;;;;;;;;;;21.69;66.94;100076.97;6244220;23;20358;-83
2023/10/27 13:08:57;;;;;;;;;;;;;;;21.61;66.78;100076.13;6243559;23;20241;-83